EJU92XQ LIBR-LIMC
Flight info
| Callsign | EJU92XQ |
|---|---|
| Flight time | 1h 29m |
| Altitude | 19000 |
| Route | FASAN M742 LUXIL/N0438F360 DCT EKMIL DCT TIXIR DCT IPGOR DCT IBRID DCT KUGIX DCT LOMED/N0337F180 M730 MIVKI T648 MEBUR |
| Aircraft | A320/M-SDE2E3FGHIJ1RWXYZ/LB1 |
Departure
| Time | 2026-04-12 10:12 |
|---|---|
| Airport | Brindisi Airport (LIBR) |
Arrival
| Time | 2026-04-12 11:41 |
|---|---|
| Airport | Milan Malpensa International Airport (LIMC) |
| Time | Latitude | Longitude | Altitude | Speed | Heading |
|---|---|---|---|---|---|
| 2026-04-12 09:44 | 40.65704 | 17.93929 | 57 ft | 0 kts | 7° |
| 2026-04-12 10:04 | 40.65709 | 17.93946 | 56 ft | 3 kts | 92° |
| 2026-04-12 10:04 | 40.65697 | 17.93952 | 49 ft | 2 kts | 176° |
| 2026-04-12 10:04 | 40.65667 | 17.93960 | 53 ft | 8 kts | 156° |
| 2026-04-12 10:04 | 40.65638 | 17.94029 | 55 ft | 12 kts | 73° |
| 2026-04-12 10:05 | 40.65699 | 17.94139 | 52 ft | 15 kts | 52° |
| 2026-04-12 10:05 | 40.65762 | 17.94248 | 52 ft | 14 kts | 53° |
| 2026-04-12 10:05 | 40.65821 | 17.94349 | 50 ft | 14 kts | 52° |
| 2026-04-12 10:05 | 40.65877 | 17.94445 | 56 ft | 13 kts | 52° |
| 2026-04-12 10:06 | 40.65930 | 17.94536 | 51 ft | 12 kts | 53° |
| 2026-04-12 10:06 | 40.65994 | 17.94645 | 54 ft | 18 kts | 51° |
| 2026-04-12 10:06 | 40.66067 | 17.94701 | 53 ft | 12 kts | 334° |
| 2026-04-12 10:06 | 40.66152 | 17.94603 | 53 ft | 21 kts | 317° |
| 2026-04-12 10:07 | 40.66266 | 17.94462 | 54 ft | 23 kts | 317° |
| 2026-04-12 10:07 | 40.66387 | 17.94314 | 54 ft | 24 kts | 317° |
| 2026-04-12 10:07 | 40.66508 | 17.94165 | 55 ft | 24 kts | 317° |
| 2026-04-12 10:07 | 40.66629 | 17.94018 | 57 ft | 24 kts | 317° |
| 2026-04-12 10:08 | 40.66750 | 17.93870 | 53 ft | 24 kts | 317° |
| 2026-04-12 10:08 | 40.66871 | 17.93721 | 52 ft | 24 kts | 317° |
| 2026-04-12 10:08 | 40.66992 | 17.93573 | 53 ft | 24 kts | 317° |
| 2026-04-12 10:08 | 40.67112 | 17.93426 | 50 ft | 23 kts | 317° |
| 2026-04-12 10:09 | 40.67230 | 17.93280 | 51 ft | 23 kts | 316° |
| 2026-04-12 10:09 | 40.67347 | 17.93137 | 54 ft | 23 kts | 317° |
| 2026-04-12 10:09 | 40.67468 | 17.92988 | 50 ft | 24 kts | 317° |
| 2026-04-12 10:09 | 40.67575 | 17.92859 | 52 ft | 16 kts | 317° |
| 2026-04-12 10:10 | 40.67639 | 17.92757 | 52 ft | 13 kts | 281° |
| 2026-04-12 10:10 | 40.67591 | 17.92654 | 54 ft | 14 kts | 227° |
| 2026-04-12 10:10 | 40.67539 | 17.92609 | 54 ft | 8 kts | 159° |
| 2026-04-12 10:10 | 40.67522 | 17.92629 | 51 ft | 0 kts | 137° |
| 2026-04-12 10:11 | 40.67520 | 17.92631 | 51 ft | 6 kts | 136° |
| 2026-04-12 10:11 | 40.67280 | 17.92924 | 55 ft | 84 kts | 137° |
| 2026-04-12 10:11 | 40.66696 | 17.93638 | 53 ft | 142 kts | 137° |
| 2026-04-12 10:11 | 40.65895 | 17.94613 | 436 ft | 157 kts | 139° |
| 2026-04-12 10:12 | 40.65085 | 17.95576 | 1233 ft | 159 kts | 140° |
| 2026-04-12 10:12 | 40.64216 | 17.96592 | 1665 ft | 178 kts | 141° |
| 2026-04-12 10:12 | 40.63231 | 17.97739 | 1993 ft | 202 kts | 140° |
| 2026-04-12 10:12 | 40.62120 | 17.99040 | 2387 ft | 226 kts | 140° |
| 2026-04-12 10:13 | 40.60891 | 18.00502 | 2883 ft | 248 kts | 136° |
| 2026-04-12 10:13 | 40.59902 | 18.02407 | 3668 ft | 258 kts | 114° |
| 2026-04-12 10:13 | 40.59524 | 18.04732 | 4577 ft | 265 kts | 91° |
| 2026-04-12 10:13 | 40.59848 | 18.07124 | 5448 ft | 270 kts | 68° |
| 2026-04-12 10:14 | 40.60868 | 18.09205 | 6302 ft | 275 kts | 44° |
| 2026-04-12 10:14 | 40.62452 | 18.10599 | 7122 ft | 277 kts | 20° |
| 2026-04-12 10:14 | 40.64339 | 18.11046 | 7976 ft | 278 kts | 357° |
| 2026-04-12 10:14 | 40.66208 | 18.10470 | 8840 ft | 279 kts | 334° |
| 2026-04-12 10:15 | 40.67839 | 18.09082 | 9712 ft | 281 kts | 320° |
| 2026-04-12 10:15 | 40.69161 | 18.07173 | 10502 ft | 285 kts | 305° |
| 2026-04-12 10:15 | 40.70070 | 18.04839 | 11258 ft | 290 kts | 291° |
| 2026-04-12 10:15 | 40.70762 | 18.02239 | 11551 ft | 312 kts | 290° |
| 2026-04-12 10:16 | 40.71498 | 17.99458 | 11928 ft | 328 kts | 290° |
| 2026-04-12 10:16 | 40.72256 | 17.96598 | 12602 ft | 333 kts | 290° |
| 2026-04-12 10:16 | 40.73025 | 17.93699 | 13338 ft | 336 kts | 290° |
| 2026-04-12 10:16 | 40.73799 | 17.90773 | 14050 ft | 339 kts | 290° |
| 2026-04-12 10:17 | 40.74580 | 17.87820 | 14686 ft | 342 kts | 290° |
| 2026-04-12 10:17 | 40.75366 | 17.84845 | 15316 ft | 346 kts | 290° |
| 2026-04-12 10:17 | 40.76158 | 17.81838 | 15938 ft | 349 kts | 290° |
| 2026-04-12 10:17 | 40.76954 | 17.78801 | 16568 ft | 352 kts | 290° |
| 2026-04-12 10:18 | 40.77760 | 17.75733 | 17200 ft | 355 kts | 290° |
| 2026-04-12 10:18 | 40.78572 | 17.72648 | 17815 ft | 358 kts | 290° |
| 2026-04-12 10:18 | 40.79392 | 17.69529 | 18425 ft | 361 kts | 290° |
| 2026-04-12 10:18 | 40.80215 | 17.66384 | 18968 ft | 364 kts | 290° |
| 2026-04-12 10:19 | 40.81041 | 17.63219 | 19529 ft | 365 kts | 290° |
| 2026-04-12 10:19 | 40.81871 | 17.60050 | 20099 ft | 366 kts | 290° |
| 2026-04-12 10:19 | 40.82705 | 17.56865 | 20664 ft | 368 kts | 290° |
| 2026-04-12 10:19 | 40.83541 | 17.53663 | 21216 ft | 369 kts | 290° |
| 2026-04-12 10:20 | 40.84375 | 17.50449 | 21748 ft | 371 kts | 290° |
| 2026-04-12 10:20 | 40.85212 | 17.47220 | 22296 ft | 372 kts | 290° |
| 2026-04-12 10:20 | 40.85923 | 17.43926 | 22810 ft | 375 kts | 282° |
| 2026-04-12 10:20 | 40.86161 | 17.40478 | 23343 ft | 380 kts | 271° |
| 2026-04-12 10:21 | 40.85955 | 17.36981 | 23815 ft | 383 kts | 267° |
| 2026-04-12 10:21 | 40.85681 | 17.33475 | 24241 ft | 385 kts | 266° |
| 2026-04-12 10:21 | 40.85401 | 17.29949 | 24664 ft | 387 kts | 266° |
| 2026-04-12 10:21 | 40.85117 | 17.26410 | 25095 ft | 388 kts | 266° |
| 2026-04-12 10:22 | 40.84832 | 17.22858 | 25519 ft | 390 kts | 267° |
| 2026-04-12 10:22 | 40.84548 | 17.19292 | 25925 ft | 391 kts | 267° |
| 2026-04-12 10:22 | 40.84262 | 17.15709 | 26321 ft | 393 kts | 267° |
| 2026-04-12 10:22 | 40.83972 | 17.12114 | 26711 ft | 395 kts | 267° |
| 2026-04-12 10:23 | 40.83678 | 17.08498 | 27093 ft | 397 kts | 266° |
| 2026-04-12 10:23 | 40.83382 | 17.04867 | 27484 ft | 399 kts | 266° |
| 2026-04-12 10:23 | 40.83083 | 17.01218 | 27854 ft | 400 kts | 267° |
| 2026-04-12 10:23 | 40.82782 | 16.97558 | 28224 ft | 402 kts | 266° |
| 2026-04-12 10:24 | 40.82483 | 16.93875 | 28574 ft | 404 kts | 268° |
| 2026-04-12 10:24 | 40.82489 | 16.90182 | 28914 ft | 403 kts | 278° |
| 2026-04-12 10:24 | 40.83027 | 16.86560 | 29257 ft | 402 kts | 288° |
| 2026-04-12 10:24 | 40.84075 | 16.83141 | 29581 ft | 403 kts | 298° |
| 2026-04-12 10:25 | 40.85564 | 16.80000 | 29892 ft | 405 kts | 304° |
| 2026-04-12 10:25 | 40.87154 | 16.76916 | 30205 ft | 407 kts | 304° |
| 2026-04-12 10:25 | 40.88725 | 16.73859 | 30472 ft | 409 kts | 304° |
| 2026-04-12 10:25 | 40.90321 | 16.70741 | 30675 ft | 410 kts | 303° |
| 2026-04-12 10:26 | 40.91923 | 16.67608 | 30930 ft | 412 kts | 303° |
| 2026-04-12 10:26 | 40.93529 | 16.64470 | 31190 ft | 413 kts | 303° |
| 2026-04-12 10:26 | 40.95142 | 16.61316 | 31505 ft | 413 kts | 303° |
| 2026-04-12 10:26 | 40.96748 | 16.58176 | 31890 ft | 411 kts | 303° |
| 2026-04-12 10:27 | 40.98349 | 16.55042 | 32266 ft | 410 kts | 303° |
| 2026-04-12 10:27 | 40.99942 | 16.51921 | 32631 ft | 409 kts | 303° |
| 2026-04-12 10:27 | 41.01532 | 16.48802 | 33005 ft | 408 kts | 303° |
| 2026-04-12 10:27 | 41.03113 | 16.45694 | 33385 ft | 407 kts | 303° |
| 2026-04-12 10:28 | 41.04689 | 16.42589 | 33748 ft | 406 kts | 302° |
| 2026-04-12 10:28 | 41.06258 | 16.39485 | 34100 ft | 405 kts | 302° |
| 2026-04-12 10:28 | 41.07820 | 16.36392 | 34416 ft | 404 kts | 302° |
| 2026-04-12 10:28 | 41.09382 | 16.33299 | 34712 ft | 403 kts | 302° |
| 2026-04-12 10:29 | 41.10940 | 16.30221 | 35002 ft | 402 kts | 302° |
| 2026-04-12 10:29 | 41.12501 | 16.27141 | 35287 ft | 402 kts | 302° |
| 2026-04-12 10:29 | 41.14053 | 16.24070 | 35565 ft | 401 kts | 302° |
| 2026-04-12 10:29 | 41.15603 | 16.20997 | 35826 ft | 401 kts | 302° |
| 2026-04-12 10:30 | 41.17151 | 16.17922 | 35992 ft | 401 kts | 302° |
| 2026-04-12 10:30 | 41.20220 | 16.11820 | 36031 ft | 395 kts | 302° |
| 2026-04-12 10:31 | 41.23269 | 16.05753 | 36029 ft | 395 kts | 302° |
| 2026-04-12 10:31 | 41.26321 | 15.99682 | 36027 ft | 395 kts | 302° |
| 2026-04-12 10:32 | 41.29363 | 15.93600 | 36031 ft | 395 kts | 302° |
| 2026-04-12 10:32 | 41.32404 | 15.87499 | 36035 ft | 396 kts | 302° |
| 2026-04-12 10:33 | 41.35441 | 15.81395 | 36033 ft | 396 kts | 302° |
| 2026-04-12 10:33 | 41.38481 | 15.75289 | 36033 ft | 396 kts | 302° |
| 2026-04-12 10:34 | 41.41524 | 15.69168 | 36039 ft | 396 kts | 302° |
| 2026-04-12 10:34 | 41.44049 | 15.64077 | 36039 ft | 396 kts | 302° |
| 2026-04-12 10:35 | 41.47081 | 15.57936 | 36038 ft | 397 kts | 302° |
| 2026-04-12 10:35 | 41.50113 | 15.51781 | 36043 ft | 397 kts | 302° |
| 2026-04-12 10:36 | 41.53149 | 15.45617 | 36036 ft | 398 kts | 302° |
| 2026-04-12 10:36 | 41.56186 | 15.39443 | 36030 ft | 398 kts | 302° |
| 2026-04-12 10:37 | 41.59222 | 15.33259 | 36019 ft | 398 kts | 302° |
| 2026-04-12 10:37 | 41.62256 | 15.27057 | 36013 ft | 399 kts | 302° |
| 2026-04-12 10:38 | 41.65287 | 15.20843 | 35999 ft | 399 kts | 302° |
| 2026-04-12 10:38 | 41.68316 | 15.14619 | 35996 ft | 399 kts | 302° |
| 2026-04-12 10:39 | 41.71347 | 15.08383 | 35989 ft | 400 kts | 302° |
| 2026-04-12 10:39 | 41.74380 | 15.02137 | 35990 ft | 400 kts | 302° |
| 2026-04-12 10:40 | 41.77414 | 14.95887 | 35988 ft | 400 kts | 302° |
| 2026-04-12 10:40 | 41.80447 | 14.89618 | 35978 ft | 401 kts | 302° |
| 2026-04-12 10:41 | 41.83485 | 14.83327 | 35978 ft | 402 kts | 302° |
| 2026-04-12 10:41 | 41.86517 | 14.77021 | 35982 ft | 403 kts | 302° |
| 2026-04-12 10:42 | 41.89553 | 14.70693 | 35981 ft | 403 kts | 302° |
| 2026-04-12 10:42 | 41.92594 | 14.64360 | 35979 ft | 404 kts | 302° |
| 2026-04-12 10:43 | 41.97153 | 14.54825 | 35986 ft | 405 kts | 302° |
| 2026-04-12 10:43 | 42.00194 | 14.48457 | 35987 ft | 405 kts | 302° |
| 2026-04-12 10:44 | 42.03231 | 14.42077 | 35985 ft | 405 kts | 302° |
| 2026-04-12 10:44 | 42.06257 | 14.35692 | 35986 ft | 405 kts | 302° |
| 2026-04-12 10:45 | 42.09294 | 14.29288 | 35984 ft | 406 kts | 302° |
| 2026-04-12 10:45 | 42.12331 | 14.22875 | 35988 ft | 406 kts | 302° |
| 2026-04-12 10:46 | 42.15362 | 14.16445 | 35998 ft | 406 kts | 301° |
| 2026-04-12 10:46 | 42.18097 | 14.09802 | 36005 ft | 406 kts | 295° |
| 2026-04-12 10:47 | 42.20562 | 14.02957 | 36000 ft | 406 kts | 295° |
| 2026-04-12 10:47 | 42.23030 | 13.96107 | 35996 ft | 406 kts | 295° |
| 2026-04-12 10:48 | 42.25502 | 13.89252 | 35990 ft | 406 kts | 295° |
| 2026-04-12 10:48 | 42.28105 | 13.82473 | 35981 ft | 407 kts | 297° |
| 2026-04-12 10:49 | 42.30835 | 13.75771 | 35971 ft | 407 kts | 298° |
| 2026-04-12 10:49 | 42.33553 | 13.69052 | 35970 ft | 408 kts | 297° |
| 2026-04-12 10:50 | 42.36235 | 13.62292 | 35967 ft | 408 kts | 297° |
| 2026-04-12 10:50 | 42.38906 | 13.55522 | 35965 ft | 408 kts | 297° |
| 2026-04-12 10:51 | 42.41581 | 13.48733 | 35956 ft | 409 kts | 297° |
| 2026-04-12 10:51 | 42.44254 | 13.41939 | 35957 ft | 409 kts | 297° |
| 2026-04-12 10:52 | 42.46925 | 13.35131 | 35955 ft | 410 kts | 297° |
| 2026-04-12 10:52 | 42.49593 | 13.28311 | 35953 ft | 410 kts | 297° |
| 2026-04-12 10:53 | 42.52263 | 13.21477 | 35954 ft | 411 kts | 297° |
| 2026-04-12 10:53 | 42.54913 | 13.14675 | 35962 ft | 411 kts | 296° |
| 2026-04-12 10:54 | 42.57594 | 13.07770 | 35960 ft | 411 kts | 297° |
| 2026-04-12 10:54 | 42.60265 | 13.00901 | 35965 ft | 412 kts | 297° |
| 2026-04-12 10:55 | 42.62914 | 12.94063 | 35960 ft | 412 kts | 296° |
| 2026-04-12 10:55 | 42.65575 | 12.87165 | 35962 ft | 413 kts | 296° |
| 2026-04-12 10:56 | 42.68238 | 12.80252 | 35948 ft | 413 kts | 296° |
| 2026-04-12 10:56 | 42.70895 | 12.73337 | 35944 ft | 413 kts | 296° |
| 2026-04-12 10:57 | 42.73552 | 12.66409 | 35934 ft | 413 kts | 296° |
| 2026-04-12 10:57 | 42.76205 | 12.59466 | 35930 ft | 413 kts | 296° |
| 2026-04-12 10:58 | 42.78856 | 12.52513 | 35932 ft | 414 kts | 296° |
| 2026-04-12 10:58 | 42.81508 | 12.45545 | 35933 ft | 414 kts | 296° |
| 2026-04-12 10:59 | 42.84153 | 12.38566 | 35933 ft | 415 kts | 296° |
| 2026-04-12 10:59 | 42.86800 | 12.31576 | 35933 ft | 415 kts | 296° |
| 2026-04-12 11:00 | 42.89946 | 12.24966 | 35929 ft | 419 kts | 310° |
| 2026-04-12 11:00 | 42.94011 | 12.19195 | 35929 ft | 419 kts | 312° |
| 2026-04-12 11:01 | 42.98029 | 12.13484 | 35927 ft | 420 kts | 311° |
| 2026-04-12 11:01 | 43.02100 | 12.07678 | 35926 ft | 420 kts | 311° |
| 2026-04-12 11:02 | 43.06142 | 12.01900 | 35922 ft | 420 kts | 311° |
| 2026-04-12 11:02 | 43.10191 | 11.96113 | 35925 ft | 421 kts | 311° |
| 2026-04-12 11:03 | 43.14235 | 11.90318 | 35921 ft | 421 kts | 311° |
| 2026-04-12 11:03 | 43.18272 | 11.84507 | 35926 ft | 421 kts | 311° |
| 2026-04-12 11:04 | 43.22317 | 11.78685 | 35933 ft | 422 kts | 311° |
| 2026-04-12 11:04 | 43.26366 | 11.72846 | 35932 ft | 422 kts | 311° |
| 2026-04-12 11:05 | 43.30388 | 11.67033 | 35927 ft | 423 kts | 311° |
| 2026-04-12 11:05 | 43.34444 | 11.61174 | 35929 ft | 423 kts | 311° |
| 2026-04-12 11:06 | 43.38493 | 11.55296 | 35933 ft | 424 kts | 311° |
| 2026-04-12 11:06 | 43.42546 | 11.49409 | 35926 ft | 423 kts | 311° |
| 2026-04-12 11:07 | 43.46615 | 11.43550 | 35924 ft | 425 kts | 315° |
| 2026-04-12 11:07 | 43.51513 | 11.38963 | 35928 ft | 429 kts | 329° |
| 2026-04-12 11:08 | 43.56766 | 11.35069 | 35940 ft | 429 kts | 329° |
| 2026-04-12 11:08 | 43.62051 | 11.31111 | 35948 ft | 429 kts | 329° |
| 2026-04-12 11:09 | 43.67261 | 11.27195 | 35953 ft | 429 kts | 329° |
| 2026-04-12 11:09 | 43.72547 | 11.23215 | 35965 ft | 430 kts | 329° |
| 2026-04-12 11:10 | 43.77767 | 11.19278 | 35968 ft | 430 kts | 329° |
| 2026-04-12 11:10 | 43.83059 | 11.15273 | 35967 ft | 431 kts | 329° |
| 2026-04-12 11:11 | 43.88287 | 11.11314 | 35974 ft | 432 kts | 329° |
| 2026-04-12 11:11 | 43.93559 | 11.07315 | 35966 ft | 431 kts | 329° |
| 2026-04-12 11:12 | 43.98727 | 11.03104 | 35963 ft | 429 kts | 320° |
| 2026-04-12 11:12 | 44.00925 | 11.00340 | 35958 ft | 425 kts | 309° |
| 2026-04-12 11:12 | 44.02725 | 10.97107 | 35957 ft | 422 kts | 300° |
| 2026-04-12 11:13 | 44.05017 | 10.89695 | 35952 ft | 418 kts | 284° |
| 2026-04-12 11:13 | 44.06684 | 10.81952 | 35951 ft | 419 kts | 284° |
| 2026-04-12 11:14 | 44.08361 | 10.74189 | 35960 ft | 420 kts | 284° |
| 2026-04-12 11:14 | 44.10027 | 10.66409 | 35957 ft | 420 kts | 284° |
| 2026-04-12 11:15 | 44.11682 | 10.58614 | 35964 ft | 420 kts | 284° |
| 2026-04-12 11:15 | 44.13323 | 10.50805 | 35965 ft | 420 kts | 284° |
| 2026-04-12 11:16 | 44.14944 | 10.42983 | 35963 ft | 421 kts | 284° |
| 2026-04-12 11:16 | 44.16564 | 10.35133 | 35944 ft | 423 kts | 283° |
| 2026-04-12 11:17 | 44.17937 | 10.28533 | 35945 ft | 424 kts | 284° |
| 2026-04-12 11:17 | 44.19589 | 10.20678 | 35952 ft | 426 kts | 284° |
| 2026-04-12 11:18 | 44.21253 | 10.12700 | 35962 ft | 426 kts | 283° |
| 2026-04-12 11:18 | 44.23470 | 10.05029 | 35955 ft | 432 kts | 301° |
| 2026-04-12 11:19 | 44.26963 | 9.98184 | 35958 ft | 434 kts | 303° |
| 2026-04-12 11:19 | 44.30482 | 9.91332 | 35955 ft | 434 kts | 302° |
| 2026-04-12 11:20 | 44.32236 | 9.87899 | 35271 ft | 435 kts | 302° |
| 2026-04-12 11:20 | 44.34002 | 9.84431 | 34054 ft | 439 kts | 302° |
| 2026-04-12 11:20 | 44.35766 | 9.80966 | 32996 ft | 435 kts | 302° |
| 2026-04-12 11:20 | 44.37506 | 9.77544 | 32052 ft | 429 kts | 302° |
| 2026-04-12 11:21 | 44.39221 | 9.74175 | 31177 ft | 422 kts | 302° |
| 2026-04-12 11:21 | 44.40909 | 9.70857 | 30330 ft | 415 kts | 302° |
| 2026-04-12 11:21 | 44.42565 | 9.67593 | 29404 ft | 409 kts | 301° |
| 2026-04-12 11:21 | 44.44196 | 9.64368 | 28457 ft | 402 kts | 302° |
| 2026-04-12 11:22 | 44.45869 | 9.61260 | 27550 ft | 398 kts | 309° |
| 2026-04-12 11:22 | 44.47769 | 9.58467 | 26640 ft | 394 kts | 311° |
| 2026-04-12 11:22 | 44.49657 | 9.55725 | 25782 ft | 388 kts | 311° |
| 2026-04-12 11:22 | 44.51517 | 9.53019 | 24953 ft | 383 kts | 311° |
| 2026-04-12 11:23 | 44.53352 | 9.50346 | 24142 ft | 378 kts | 311° |
| 2026-04-12 11:23 | 44.55164 | 9.47705 | 23320 ft | 374 kts | 311° |
| 2026-04-12 11:23 | 44.56958 | 9.45086 | 22446 ft | 369 kts | 311° |
| 2026-04-12 11:23 | 44.58724 | 9.42507 | 21637 ft | 365 kts | 311° |
| 2026-04-12 11:24 | 44.60470 | 9.39955 | 20847 ft | 360 kts | 311° |
| 2026-04-12 11:24 | 44.62192 | 9.37437 | 20074 ft | 355 kts | 311° |
| 2026-04-12 11:24 | 44.63838 | 9.35031 | 19357 ft | 351 kts | 312° |
| 2026-04-12 11:24 | 44.65517 | 9.32573 | 18753 ft | 344 kts | 312° |
| 2026-04-12 11:25 | 44.67156 | 9.30169 | 18350 ft | 340 kts | 312° |
| 2026-04-12 11:25 | 44.68786 | 9.27771 | 17907 ft | 338 kts | 312° |
| 2026-04-12 11:25 | 44.70399 | 9.25393 | 17513 ft | 334 kts | 312° |
| 2026-04-12 11:25 | 44.71998 | 9.23031 | 17127 ft | 333 kts | 312° |
| 2026-04-12 11:26 | 44.73590 | 9.20684 | 16744 ft | 331 kts | 312° |
| 2026-04-12 11:26 | 44.75175 | 9.18349 | 16362 ft | 329 kts | 313° |
| 2026-04-12 11:26 | 44.76881 | 9.16272 | 15995 ft | 329 kts | 323° |
| 2026-04-12 11:26 | 44.78780 | 9.14420 | 15629 ft | 327 kts | 324° |
| 2026-04-12 11:27 | 44.80650 | 9.12593 | 15266 ft | 326 kts | 324° |
| 2026-04-12 11:27 | 44.82506 | 9.10773 | 14900 ft | 325 kts | 324° |
| 2026-04-12 11:27 | 44.84358 | 9.08954 | 14534 ft | 324 kts | 324° |
| 2026-04-12 11:27 | 44.86201 | 9.07141 | 14172 ft | 323 kts | 324° |
| 2026-04-12 11:28 | 44.88041 | 9.05330 | 13808 ft | 322 kts | 324° |
| 2026-04-12 11:28 | 44.89876 | 9.03520 | 13413 ft | 321 kts | 324° |
| 2026-04-12 11:28 | 44.91696 | 9.01728 | 13035 ft | 318 kts | 324° |
| 2026-04-12 11:28 | 44.93509 | 8.99943 | 12684 ft | 316 kts | 324° |
| 2026-04-12 11:29 | 44.95309 | 8.98174 | 12320 ft | 314 kts | 325° |
| 2026-04-12 11:29 | 44.97249 | 8.96768 | 11942 ft | 314 kts | 339° |
| 2026-04-12 11:29 | 44.99347 | 8.95911 | 11578 ft | 313 kts | 343° |
| 2026-04-12 11:29 | 45.01449 | 8.95114 | 11200 ft | 312 kts | 343° |
| 2026-04-12 11:30 | 45.03545 | 8.94319 | 10821 ft | 311 kts | 343° |
| 2026-04-12 11:30 | 45.05633 | 8.93527 | 10435 ft | 310 kts | 343° |
| 2026-04-12 11:30 | 45.07716 | 8.92732 | 10046 ft | 310 kts | 343° |
| 2026-04-12 11:30 | 45.09781 | 8.91942 | 9832 ft | 302 kts | 343° |
| 2026-04-12 11:31 | 45.11787 | 8.91174 | 9555 ft | 297 kts | 343° |
| 2026-04-12 11:31 | 45.13756 | 8.90419 | 9165 ft | 296 kts | 343° |
| 2026-04-12 11:31 | 45.15731 | 8.89624 | 8777 ft | 295 kts | 342° |
| 2026-04-12 11:31 | 45.17674 | 8.88768 | 8228 ft | 290 kts | 341° |
| 2026-04-12 11:32 | 45.19586 | 8.87896 | 7675 ft | 285 kts | 341° |
| 2026-04-12 11:32 | 45.21442 | 8.87043 | 7260 ft | 275 kts | 341° |
| 2026-04-12 11:32 | 45.23265 | 8.86203 | 6861 ft | 276 kts | 341° |
| 2026-04-12 11:32 | 45.25094 | 8.85365 | 6466 ft | 276 kts | 342° |
| 2026-04-12 11:33 | 45.26327 | 8.84803 | 6261 ft | 274 kts | 342° |
| 2026-04-12 11:33 | 45.27254 | 8.84386 | 6207 ft | 267 kts | 342° |
| 2026-04-12 11:33 | 45.28989 | 8.83606 | 6090 ft | 256 kts | 342° |
| 2026-04-12 11:33 | 45.30646 | 8.82851 | 5979 ft | 244 kts | 340° |
| 2026-04-12 11:34 | 45.32198 | 8.81975 | 5892 ft | 237 kts | 342° |
| 2026-04-12 11:34 | 45.33773 | 8.81381 | 5793 ft | 231 kts | 348° |
| 2026-04-12 11:34 | 45.35321 | 8.80951 | 5692 ft | 223 kts | 350° |
| 2026-04-12 11:34 | 45.36811 | 8.80550 | 5601 ft | 213 kts | 350° |
| 2026-04-12 11:35 | 45.38242 | 8.80160 | 5364 ft | 207 kts | 350° |
| 2026-04-12 11:35 | 45.39642 | 8.79778 | 5096 ft | 203 kts | 350° |
| 2026-04-12 11:35 | 45.41014 | 8.79402 | 4840 ft | 200 kts | 351° |
| 2026-04-12 11:35 | 45.42370 | 8.79031 | 4568 ft | 197 kts | 351° |
| 2026-04-12 11:36 | 45.43707 | 8.78664 | 4301 ft | 196 kts | 351° |
| 2026-04-12 11:36 | 45.45041 | 8.78298 | 4033 ft | 192 kts | 352° |
| 2026-04-12 11:36 | 45.46319 | 8.77947 | 3786 ft | 182 kts | 352° |
| 2026-04-12 11:36 | 45.47527 | 8.77614 | 3573 ft | 169 kts | 352° |
| 2026-04-12 11:37 | 45.48641 | 8.77308 | 3333 ft | 157 kts | 352° |
| 2026-04-12 11:37 | 45.49689 | 8.77021 | 3139 ft | 151 kts | 352° |
| 2026-04-12 11:37 | 45.50709 | 8.76741 | 2929 ft | 148 kts | 352° |
| 2026-04-12 11:37 | 45.51716 | 8.76465 | 2731 ft | 147 kts | 352° |
| 2026-04-12 11:38 | 45.52722 | 8.76188 | 2535 ft | 147 kts | 352° |
| 2026-04-12 11:38 | 45.53726 | 8.75913 | 2347 ft | 147 kts | 353° |
| 2026-04-12 11:38 | 45.54727 | 8.75637 | 2125 ft | 145 kts | 352° |
| 2026-04-12 11:38 | 45.55715 | 8.75365 | 1923 ft | 144 kts | 352° |
| 2026-04-12 11:39 | 45.56700 | 8.75094 | 1753 ft | 144 kts | 351° |
| 2026-04-12 11:39 | 45.57687 | 8.74822 | 1551 ft | 145 kts | 351° |
| 2026-04-12 11:39 | 45.58674 | 8.74549 | 1317 ft | 144 kts | 350° |
| 2026-04-12 11:39 | 45.59654 | 8.74279 | 1138 ft | 143 kts | 351° |
| 2026-04-12 11:40 | 45.60629 | 8.74008 | 944 ft | 142 kts | 350° |
| 2026-04-12 11:40 | 45.61598 | 8.73740 | 777 ft | 142 kts | 351° |
| 2026-04-12 11:40 | 45.62499 | 8.73495 | 739 ft | 116 kts | 349° |
| 2026-04-12 11:40 | 45.63129 | 8.73320 | 735 ft | 72 kts | 349° |
| 2026-04-12 11:41 | 45.63573 | 8.73198 | 739 ft | 59 kts | 349° |
| 2026-04-12 11:41 | 45.63945 | 8.73096 | 737 ft | 49 kts | 349° |
| 2026-04-12 11:41 | 45.64211 | 8.73019 | 736 ft | 29 kts | 345° |
| 2026-04-12 11:41 | 45.64348 | 8.72825 | 735 ft | 25 kts | 304° |
| 2026-04-12 11:42 | 45.64410 | 8.72692 | 736 ft | 13 kts | 306° |
| 2026-04-12 11:42 | 45.64483 | 8.72659 | 735 ft | 10 kts | 350° |
| 2026-04-12 11:42 | 45.64549 | 8.72640 | 736 ft | 9 kts | 348° |
| 2026-04-12 11:43 | 45.64663 | 8.72604 | 735 ft | 3 kts | 323° |
| 2026-04-12 11:43 | 45.64663 | 8.72576 | 736 ft | 2 kts | 266° |
| 2026-04-12 11:43 | 45.64658 | 8.72537 | 736 ft | 4 kts | 259° |
| 2026-04-12 11:43 | 45.64654 | 8.72506 | 736 ft | 2 kts | 259° |
| 2026-04-12 11:44 | 45.64653 | 8.72498 | 736 ft | 0 kts | 259° |